sensor_id;sensor_type;location;lat;lon;timestamp;pressure;altitude;pressure_sealevel;temperature;humidity
7836;BME280;3963;42.658;23.298;2023-02-28T00:01:06;58931.44;;;6.57;100.00
7836;BME280;3963;42.658;23.298;2023-02-28T00:03:33;58935.53;;;6.56;100.00
7836;BME280;3963;42.658;23.298;2023-02-28T00:06:01;58939.97;;;6.65;100.00
7836;BME280;3963;42.658;23.298;2023-02-28T00:08:28;58942.63;;;6.68;100.00
7836;BME280;3963;42.658;23.298;2023-02-28T00:10:54;58924.00;;;6.65;100.00
7836;BME280;3963;42.658;23.298;2023-02-28T00:13:23;58936.84;;;6.65;100.00
7836;BME280;3963;42.658;23.298;2023-02-28T00:15:59;58990.16;;;6.74;100.00
7836;BME280;3963;42.658;23.298;2023-02-28T00:18:26;58950.59;;;6.76;100.00
7836;BME280;3963;42.658;23.298;2023-02-28T00:20:52;58952.63;;;6.75;100.00
7836;BME280;3963;42.658;23.298;2023-02-28T00:23:19;58941.91;;;6.77;100.00
7836;BME280;3963;42.658;23.298;2023-02-28T00:25:46;58945.81;;;6.71;100.00
7836;BME280;3963;42.658;23.298;2023-02-28T00:28:13;58944.19;;;6.69;100.00
7836;BME280;3963;42.658;23.298;2023-02-28T00:30:41;58930.91;;;6.72;100.00
7836;BME280;3963;42.658;23.298;2023-02-28T00:33:07;58929.75;;;6.68;100.00
7836;BME280;3963;42.658;23.298;2023-02-28T00:35:34;58940.47;;;6.66;100.00
7836;BME280;3963;42.658;23.298;2023-02-28T00:38:01;58956.63;;;6.72;100.00
7836;BME280;3963;42.658;23.298;2023-02-28T00:40:28;58925.75;;;6.72;100.00
7836;BME280;3963;42.658;23.298;2023-02-28T00:42:55;58975.78;;;6.75;100.00
7836;BME280;3963;42.658;23.298;2023-02-28T00:45:22;58942.88;;;6.76;100.00
7836;BME280;3963;42.658;23.298;2023-02-28T00:47:50;58941.19;;;6.72;100.00
7836;BME280;3963;42.658;23.298;2023-02-28T00:50:17;58946.25;;;6.69;100.00
7836;BME280;3963;42.658;23.298;2023-02-28T00:52:44;58936.41;;;6.67;100.00
7836;BME280;3963;42.658;23.298;2023-02-28T00:55:11;58945.19;;;6.68;100.00
7836;BME280;3963;42.658;23.298;2023-02-28T00:57:38;58949.09;;;6.62;100.00
7836;BME280;3963;42.658;23.298;2023-02-28T01:00:06;58899.56;;;6.42;100.00
7836;BME280;3963;42.658;23.298;2023-02-28T01:02:34;58928.00;;;6.47;100.00
7836;BME280;3963;42.658;23.298;2023-02-28T01:05:02;58930.13;;;6.49;100.00
7836;BME280;3963;42.658;23.298;2023-02-28T01:07:30;58924.00;;;6.50;100.00
7836;BME280;3963;42.658;23.298;2023-02-28T01:09:56;58940.41;;;6.49;100.00
7836;BME280;3963;42.658;23.298;2023-02-28T01:12:23;58908.06;;;6.35;100.00
7836;BME280;3963;42.658;23.298;2023-02-28T01:14:50;58924.03;;;6.36;100.00
7836;BME280;3963;42.658;23.298;2023-02-28T01:17:16;58884.75;;;6.30;100.00
7836;BME280;3963;42.658;23.298;2023-02-28T01:19:43;58936.44;;;6.38;100.00
7836;BME280;3963;42.658;23.298;2023-02-28T01:22:11;58941.13;;;6.40;100.00
7836;BME280;3963;42.658;23.298;2023-02-28T01:24:38;58931.63;;;6.33;100.00
7836;BME280;3963;42.658;23.298;2023-02-28T01:27:05;58905.41;;;6.33;100.00
7836;BME280;3963;42.658;23.298;2023-02-28T01:29:31;58908.50;;;6.33;100.00
7836;BME280;3963;42.658;23.298;2023-02-28T01:31:58;58904.97;;;6.35;100.00
7836;BME280;3963;42.658;23.298;2023-02-28T01:34:25;58896.09;;;6.31;100.00
7836;BME280;3963;42.658;23.298;2023-02-28T01:36:52;58882.72;;;6.31;100.00
7836;BME280;3963;42.658;23.298;2023-02-28T01:39:20;58909.84;;;6.42;100.00
7836;BME280;3963;42.658;23.298;2023-02-28T01:41:47;58919.66;;;6.44;100.00
7836;BME280;3963;42.658;23.298;2023-02-28T01:47:18;58930.03;;;6.46;100.00
7836;BME280;3963;42.658;23.298;2023-02-28T01:49:45;58926.94;;;6.46;100.00
7836;BME280;3963;42.658;23.298;2023-02-28T01:52:13;58939.88;;;6.48;100.00
7836;BME280;3963;42.658;23.298;2023-02-28T01:54:51;58927.75;;;6.54;100.00
7836;BME280;3963;42.658;23.298;2023-02-28T01:57:21;58929.41;;;6.43;100.00
7836;BME280;3963;42.658;23.298;2023-02-28T01:59:52;58918.53;;;6.40;100.00
7836;BME280;3963;42.658;23.298;2023-02-28T02:02:21;58898.88;;;6.07;100.00
7836;BME280;3963;42.658;23.298;2023-02-28T02:04:52;58873.09;;;6.04;100.00
7836;BME280;3963;42.658;23.298;2023-02-28T02:07:21;58860.06;;;5.99;100.00
7836;BME280;3963;42.658;23.298;2023-02-28T02:09:49;58876.03;;;6.00;100.00
7836;BME280;3963;42.658;23.298;2023-02-28T02:12:24;58864.22;;;6.16;100.00
7836;BME280;3963;42.658;23.298;2023-02-28T02:15:01;58890.38;;;5.99;100.00
7836;BME280;3963;42.658;23.298;2023-02-28T02:17:34;58909.84;;;6.12;100.00
7836;BME280;3963;42.658;23.298;2023-02-28T02:20:32;58890.88;;;5.85;100.00
7836;BME280;3963;42.658;23.298;2023-02-28T02:23:32;58864.94;;;5.77;100.00
7836;BME280;3963;42.658;23.298;2023-02-28T02:26:15;58868.03;;;5.92;100.00
7836;BME280;3963;42.658;23.298;2023-02-28T02:29:02;58867.16;;;5.82;100.00
7836;BME280;3963;42.658;23.298;2023-02-28T02:32:09;58884.78;;;6.01;100.00
7836;BME280;3963;42.658;23.298;2023-02-28T02:34:50;58867.16;;;5.96;100.00
7836;BME280;3963;42.658;23.298;2023-02-28T02:37:25;58879.38;;;5.93;100.00
7836;BME280;3963;42.658;23.298;2023-02-28T02:40:02;58923.59;;;6.08;100.00
7836;BME280;3963;42.658;23.298;2023-02-28T02:42:39;58908.19;;;6.08;100.00
7836;BME280;3963;42.658;23.298;2023-02-28T02:45:11;58877.50;;;6.13;100.00
7836;BME280;3963;42.658;23.298;2023-02-28T02:47:39;58938.22;;;6.30;100.00
7836;BME280;3963;42.658;23.298;2023-02-28T02:50:14;58924.22;;;6.11;100.00
7836;BME280;3963;42.658;23.298;2023-02-28T02:52:46;58948.50;;;6.15;100.00
7836;BME280;3963;42.658;23.298;2023-02-28T02:55:17;58950.25;;;6.22;100.00
7836;BME280;3963;42.658;23.298;2023-02-28T02:57:47;58928.81;;;6.26;100.00
7836;BME280;3963;42.658;23.298;2023-02-28T03:00:18;58910.56;;;6.33;100.00
7836;BME280;3963;42.658;23.298;2023-02-28T03:02:48;58916.13;;;6.31;100.00
7836;BME280;3963;42.658;23.298;2023-02-28T03:05:20;58932.78;;;6.22;100.00
7836;BME280;3963;42.658;23.298;2023-02-28T03:07:48;58907.88;;;6.30;100.00
7836;BME280;3963;42.658;23.298;2023-02-28T03:10:29;58908.97;;;6.17;100.00
7836;BME280;3963;42.658;23.298;2023-02-28T03:13:03;58898.84;;;6.22;100.00
7836;BME280;3963;42.658;23.298;2023-02-28T03:15:45;58934.81;;;6.36;100.00
7836;BME280;3963;42.658;23.298;2023-02-28T03:18:22;58914.09;;;6.31;100.00
7836;BME280;3963;42.658;23.298;2023-02-28T03:20:59;58948.28;;;6.39;100.00
7836;BME280;3963;42.658;23.298;2023-02-28T03:23:32;58956.13;;;6.42;100.00
7836;BME280;3963;42.658;23.298;2023-02-28T03:26:06;58895.19;;;6.50;100.00
7836;BME280;3963;42.658;23.298;2023-02-28T03:28:41;58905.22;;;6.42;100.00
7836;BME280;3963;42.658;23.298;2023-02-28T03:31:16;58939.63;;;6.26;100.00
7836;BME280;3963;42.658;23.298;2023-02-28T03:33:47;58939.63;;;6.26;100.00
7836;BME280;3963;42.658;23.298;2023-02-28T03:36:23;58921.09;;;6.26;100.00
7836;BME280;3963;42.658;23.298;2023-02-28T03:38:56;58935.81;;;6.35;100.00
7836;BME280;3963;42.658;23.298;2023-02-28T03:41:29;58922.59;;;6.39;100.00
7836;BME280;3963;42.658;23.298;2023-02-28T03:44:00;58907.88;;;6.30;100.00
7836;BME280;3963;42.658;23.298;2023-02-28T03:46:33;58879.00;;;6.12;100.00
7836;BME280;3963;42.658;23.298;2023-02-28T03:49:03;58907.97;;;6.03;100.00
7836;BME280;3963;42.658;23.298;2023-02-28T03:51:36;58895.06;;;6.01;100.00
7836;BME280;3963;42.658;23.298;2023-02-28T03:54:08;58859.16;;;6.03;100.00
7836;BME280;3963;42.658;23.298;2023-02-28T03:56:38;58919.94;;;6.07;100.00
7836;BME280;3963;42.658;23.298;2023-02-28T03:59:12;58910.47;;;6.16;100.00
7836;BME280;3963;42.658;23.298;2023-02-28T04:01:43;58930.16;;;6.20;100.00
7836;BME280;3963;42.658;23.298;2023-02-28T04:04:10;58914.72;;;6.20;100.00
7836;BME280;3963;42.658;23.298;2023-02-28T04:06:40;58930.75;;;6.23;100.00
7836;BME280;3963;42.658;23.298;2023-02-28T04:09:09;58911.19;;;6.21;100.00
7836;BME280;3963;42.658;23.298;2023-02-28T04:11:38;58923.22;;;5.98;100.00
7836;BME280;3963;42.658;23.298;2023-02-28T04:14:06;58934.13;;;6.16;100.00
7836;BME280;3963;42.658;23.298;2023-02-28T04:16:35;58935.38;;;6.22;100.00
7836;BME280;3963;42.658;23.298;2023-02-28T04:19:03;58937.06;;;6.11;100.00
7836;BME280;3963;42.658;23.298;2023-02-28T04:21:31;58907.91;;;6.16;100.00
7836;BME280;3963;42.658;23.298;2023-02-28T04:24:00;58892.03;;;6.18;100.00
7836;BME280;3963;42.658;23.298;2023-02-28T04:26:28;58862.75;;;5.87;100.00
7836;BME280;3963;42.658;23.298;2023-02-28T04:28:56;58877.50;;;5.84;100.00
7836;BME280;3963;42.658;23.298;2023-02-28T04:31:22;58867.69;;;5.82;100.00
7836;BME280;3963;42.658;23.298;2023-02-28T04:33:49;58876.13;;;5.88;100.00
7836;BME280;3963;42.658;23.298;2023-02-28T04:36:16;58851.94;;;5.87;100.00
7836;BME280;3963;42.658;23.298;2023-02-28T04:38:44;58860.78;;;5.90;100.00
7836;BME280;3963;42.658;23.298;2023-02-28T04:41:13;58887.97;;;5.89;100.00
7836;BME280;3963;42.658;23.298;2023-02-28T04:43:40;58906.56;;;5.92;100.00
7836;BME280;3963;42.658;23.298;2023-02-28T04:46:07;58905.50;;;5.91;100.00
7836;BME280;3963;42.658;23.298;2023-02-28T04:48:36;58891.78;;;5.95;100.00
7836;BME280;3963;42.658;23.298;2023-02-28T04:51:04;58824.28;;;5.75;100.00
7836;BME280;3963;42.658;23.298;2023-02-28T04:53:31;58845.91;;;5.76;100.00
7836;BME280;3963;42.658;23.298;2023-02-28T04:55:58;58861.56;;;5.69;100.00
7836;BME280;3963;42.658;23.298;2023-02-28T04:58:27;58834.66;;;5.78;100.00
7836;BME280;3963;42.658;23.298;2023-02-28T05:01:01;58847.13;;;5.82;100.00
7836;BME280;3963;42.658;23.298;2023-02-28T05:03:28;58867.88;;;5.73;100.00
7836;BME280;3963;42.658;23.298;2023-02-28T05:05:55;58849.63;;;5.65;100.00
7836;BME280;3963;42.658;23.298;2023-02-28T05:08:22;58891.06;;;5.75;100.00
7836;BME280;3963;42.658;23.298;2023-02-28T05:10:49;58857.13;;;5.75;100.00
7836;BME280;3963;42.658;23.298;2023-02-28T05:13:15;58850.31;;;5.71;100.00
7836;BME280;3963;42.658;23.298;2023-02-28T05:15:43;58888.13;;;5.80;100.00
7836;BME280;3963;42.658;23.298;2023-02-28T05:18:10;58837.56;;;5.73;100.00
7836;BME280;3963;42.658;23.298;2023-02-28T05:20:37;58880.06;;;5.84;100.00
7836;BME280;3963;42.658;23.298;2023-02-28T05:23:04;58891.97;;;5.86;100.00
7836;BME280;3963;42.658;23.298;2023-02-28T05:25:30;58862.34;;;5.77;100.00
7836;BME280;3963;42.658;23.298;2023-02-28T05:27:57;58828.34;;;5.74;100.00
7836;BME280;3963;42.658;23.298;2023-02-28T05:30:24;58888.03;;;5.77;100.00
7836;BME280;3963;42.658;23.298;2023-02-28T05:32:52;58872.28;;;5.82;100.00
7836;BME280;3963;42.658;23.298;2023-02-28T05:35:19;58817.66;;;5.76;100.00
7836;BME280;3963;42.658;23.298;2023-02-28T05:37:45;58825.69;;;5.72;100.00
7836;BME280;3963;42.658;23.298;2023-02-28T05:40:12;58871.13;;;5.78;100.00
7836;BME280;3963;42.658;23.298;2023-02-28T05:42:40;58844.13;;;5.84;100.00
7836;BME280;3963;42.658;23.298;2023-02-28T05:45:07;58842.09;;;5.85;100.00
7836;BME280;3963;42.658;23.298;2023-02-28T05:47:35;58836.75;;;5.80;100.00
7836;BME280;3963;42.658;23.298;2023-02-28T05:50:04;58846.69;;;5.70;100.00
7836;BME280;3963;42.658;23.298;2023-02-28T05:52:31;58845.38;;;5.61;100.00
7836;BME280;3963;42.658;23.298;2023-02-28T05:54:58;58871.75;;;5.81;100.00
7836;BME280;3963;42.658;23.298;2023-02-28T05:57:25;58856.09;;;5.88;100.00
7836;BME280;3963;42.658;23.298;2023-02-28T05:59:51;58857.31;;;5.80;100.00
7836;BME280;3963;42.658;23.298;2023-02-28T06:02:18;58836.88;;;5.82;100.00
7836;BME280;3963;42.658;23.298;2023-02-28T06:04:45;58881.34;;;5.90;100.00
7836;BME280;3963;42.658;23.298;2023-02-28T06:07:13;58927.03;;;6.04;100.00
7836;BME280;3963;42.658;23.298;2023-02-28T06:09:40;58909.69;;;6.07;100.00
7836;BME280;3963;42.658;23.298;2023-02-28T06:12:07;58904.53;;;5.93;100.00
7836;BME280;3963;42.658;23.298;2023-02-28T06:14:35;58845.38;;;5.90;100.00
7836;BME280;3963;42.658;23.298;2023-02-28T06:17:02;58894.09;;;6.02;100.00
7836;BME280;3963;42.658;23.298;2023-02-28T06:19:29;58938.84;;;6.18;100.00
7836;BME280;3963;42.658;23.298;2023-02-28T06:21:56;58916.59;;;6.29;100.00
7836;BME280;3963;42.658;23.298;2023-02-28T06:24:26;58949.91;;;6.26;100.00
7836;BME280;3963;42.658;23.298;2023-02-28T06:26:54;58895.22;;;6.21;100.00
7836;BME280;3963;42.658;23.298;2023-02-28T06:29:21;58894.78;;;6.08;100.00
7836;BME280;3963;42.658;23.298;2023-02-28T06:31:48;58949.53;;;6.31;100.00
7836;BME280;3963;42.658;23.298;2023-02-28T06:34:16;58856.50;;;6.16;100.00
7836;BME280;3963;42.658;23.298;2023-02-28T06:36:43;58892.75;;;6.23;100.00
7836;BME280;3963;42.658;23.298;2023-02-28T06:39:10;58954.50;;;6.55;100.00
7836;BME280;3963;42.658;23.298;2023-02-28T06:41:38;58943.66;;;6.69;100.00
7836;BME280;3963;42.658;23.298;2023-02-28T06:44:08;58943.34;;;6.44;100.00
7836;BME280;3963;42.658;23.298;2023-02-28T06:46:38;58947.06;;;6.48;100.00
7836;BME280;3963;42.658;23.298;2023-02-28T06:49:05;58940.84;;;6.61;100.00
7836;BME280;3963;42.658;23.298;2023-02-28T06:51:35;58949.44;;;6.72;100.00
7836;BME280;3963;42.658;23.298;2023-02-28T06:54:02;58967.78;;;6.82;100.00
7836;BME280;3963;42.658;23.298;2023-02-28T06:56:28;58966.19;;;6.81;100.00
7836;BME280;3963;42.658;23.298;2023-02-28T06:58:56;58945.25;;;6.85;100.00
7836;BME280;3963;42.658;23.298;2023-02-28T07:01:23;58952.69;;;6.92;100.00
7836;BME280;3963;42.658;23.298;2023-02-28T07:03:51;58999.81;;;7.00;100.00
7836;BME280;3963;42.658;23.298;2023-02-28T07:06:18;58953.13;;;6.90;100.00
7836;BME280;3963;42.658;23.298;2023-02-28T07:08:45;58975.66;;;6.87;100.00
7836;BME280;3963;42.658;23.298;2023-02-28T07:11:12;58958.59;;;6.68;100.00
7836;BME280;3963;42.658;23.298;2023-02-28T07:13:39;58949.31;;;6.84;100.00
7836;BME280;3963;42.658;23.298;2023-02-28T07:16:10;58983.56;;;6.92;100.00
7836;BME280;3963;42.658;23.298;2023-02-28T07:18:37;58979.50;;;6.79;100.00
7836;BME280;3963;42.658;23.298;2023-02-28T07:21:05;58967.09;;;6.77;100.00
7836;BME280;3963;42.658;23.298;2023-02-28T07:23:33;58947.47;;;6.75;100.00
7836;BME280;3963;42.658;23.298;2023-02-28T07:25:59;58964.25;;;6.69;100.00
7836;BME280;3963;42.658;23.298;2023-02-28T07:28:27;58992.81;;;6.77;100.00
7836;BME280;3963;42.658;23.298;2023-02-28T07:30:54;58920.44;;;6.66;100.00
7836;BME280;3963;42.658;23.298;2023-02-28T07:33:22;58977.38;;;6.62;100.00
7836;BME280;3963;42.658;23.298;2023-02-28T07:35:49;58945.97;;;6.76;100.00
7836;BME280;3963;42.658;23.298;2023-02-28T07:38:16;58977.38;;;6.77;100.00
7836;BME280;3963;42.658;23.298;2023-02-28T07:40:43;58990.56;;;7.01;100.00
7836;BME280;3963;42.658;23.298;2023-02-28T07:43:09;59005.63;;;7.20;100.00
7836;BME280;3963;42.658;23.298;2023-02-28T07:45:36;59014.25;;;7.16;100.00
7836;BME280;3963;42.658;23.298;2023-02-28T07:48:03;59021.88;;;7.14;100.00
7836;BME280;3963;42.658;23.298;2023-02-28T07:50:31;59008.03;;;7.15;100.00
7836;BME280;3963;42.658;23.298;2023-02-28T07:52:59;59016.56;;;7.09;100.00
7836;BME280;3963;42.658;23.298;2023-02-28T07:55:26;59001.22;;;7.11;100.00
7836;BME280;3963;42.658;23.298;2023-02-28T07:57:53;59029.72;;;7.16;100.00
7836;BME280;3963;42.658;23.298;2023-02-28T08:00:20;59033.06;;;7.24;100.00
7836;BME280;3963;42.658;23.298;2023-02-28T08:02:47;58998.44;;;7.21;100.00
7836;BME280;3963;42.658;23.298;2023-02-28T08:05:14;59017.97;;;7.05;100.00
7836;BME280;3963;42.658;23.298;2023-02-28T08:07:42;59008.94;;;7.11;100.00
7836;BME280;3963;42.658;23.298;2023-02-28T08:10:10;59016.47;;;7.21;100.00
7836;BME280;3963;42.658;23.298;2023-02-28T08:12:37;59006.44;;;7.29;100.00
7836;BME280;3963;42.658;23.298;2023-02-28T08:15:04;59037.06;;;7.21;100.00
7836;BME280;3963;42.658;23.298;2023-02-28T08:17:31;59050.63;;;7.41;100.00
7836;BME280;3963;42.658;23.298;2023-02-28T08:19:58;59048.75;;;7.47;100.00
7836;BME280;3963;42.658;23.298;2023-02-28T08:22:24;59065.78;;;7.63;100.00
7836;BME280;3963;42.658;23.298;2023-02-28T08:24:52;59031.22;;;7.62;100.00
7836;BME280;3963;42.658;23.298;2023-02-28T08:27:19;59048.03;;;7.56;100.00
7836;BME280;3963;42.658;23.298;2023-02-28T08:29:46;59096.53;;;7.72;100.00
7836;BME280;3963;42.658;23.298;2023-02-28T08:32:12;59090.19;;;7.84;100.00
7836;BME280;3963;42.658;23.298;2023-02-28T08:34:40;59052.28;;;7.74;100.00
7836;BME280;3963;42.658;23.298;2023-02-28T08:37:06;59130.38;;;7.97;100.00
7836;BME280;3963;42.658;23.298;2023-02-28T08:39:34;59092.50;;;7.91;100.00
7836;BME280;3963;42.658;23.298;2023-02-28T08:42:02;59103.16;;;7.86;100.00
7836;BME280;3963;42.658;23.298;2023-02-28T08:44:29;59107.06;;;7.95;100.00
7836;BME280;3963;42.658;23.298;2023-02-28T08:46:56;59116.56;;;8.01;100.00
7836;BME280;3963;42.658;23.298;2023-02-28T08:49:23;59147.06;;;8.03;100.00
7836;BME280;3963;42.658;23.298;2023-02-28T08:51:49;59118.97;;;7.96;100.00
7836;BME280;3963;42.658;23.298;2023-02-28T08:54:16;59087.63;;;7.84;100.00
7836;BME280;3963;42.658;23.298;2023-02-28T08:56:45;58973.22;;;7.36;100.00
7836;BME280;3963;42.658;23.298;2023-02-28T08:59:13;59017.88;;;7.17;100.00
7836;BME280;3963;42.658;23.298;2023-02-28T09:01:41;59059.97;;;7.28;100.00
7836;BME280;3963;42.658;23.298;2023-02-28T09:04:09;59044.06;;;7.30;100.00
7836;BME280;3963;42.658;23.298;2023-02-28T09:06:37;59006.88;;;7.27;100.00
7836;BME280;3963;42.658;23.298;2023-02-28T09:09:04;59050.47;;;7.21;100.00
7836;BME280;3963;42.658;23.298;2023-02-28T09:11:33;58982.16;;;6.96;100.00
7836;BME280;3963;42.658;23.298;2023-02-28T09:14:00;58955.59;;;7.02;100.00
7836;BME280;3963;42.658;23.298;2023-02-28T09:16:31;59038.03;;;7.34;100.00
7836;BME280;3963;42.658;23.298;2023-02-28T09:18:58;59060.38;;;7.41;100.00
7836;BME280;3963;42.658;23.298;2023-02-28T09:21:25;59077.97;;;7.43;100.00
7836;BME280;3963;42.658;23.298;2023-02-28T09:23:52;59102.50;;;7.51;100.00
7836;BME280;3963;42.658;23.298;2023-02-28T09:26:21;59046.91;;;7.52;100.00
7836;BME280;3963;42.658;23.298;2023-02-28T09:28:49;59115.09;;;7.73;100.00
7836;BME280;3963;42.658;23.298;2023-02-28T09:31:17;59075.38;;;7.72;100.00
7836;BME280;3963;42.658;23.298;2023-02-28T09:33:47;59142.97;;;7.90;100.00
7836;BME280;3963;42.658;23.298;2023-02-28T09:36:14;59138.94;;;8.22;100.00
7836;BME280;3963;42.658;23.298;2023-02-28T09:38:41;59178.53;;;8.48;100.00
7836;BME280;3963;42.658;23.298;2023-02-28T09:41:13;59166.41;;;8.56;100.00
7836;BME280;3963;42.658;23.298;2023-02-28T09:43:44;59199.69;;;8.63;100.00
7836;BME280;3963;42.658;23.298;2023-02-28T09:46:21;59207.31;;;8.75;100.00
7836;BME280;3963;42.658;23.298;2023-02-28T09:48:53;59215.41;;;8.85;100.00
7836;BME280;3963;42.658;23.298;2023-02-28T09:51:34;59222.81;;;8.75;100.00
7836;BME280;3963;42.658;23.298;2023-02-28T09:54:04;59258.72;;;8.99;100.00
7836;BME280;3963;42.658;23.298;2023-02-28T09:56:35;59276.81;;;9.14;100.00
7836;BME280;3963;42.658;23.298;2023-02-28T09:59:11;59218.88;;;8.81;100.00
7836;BME280;3963;42.658;23.298;2023-02-28T10:01:50;59259.44;;;9.05;100.00
7836;BME280;3963;42.658;23.298;2023-02-28T10:04:40;59265.84;;;9.11;100.00
7836;BME280;3963;42.658;23.298;2023-02-28T10:07:16;59305.94;;;9.05;100.00
7836;BME280;3963;42.658;23.298;2023-02-28T10:09:47;59264.97;;;9.00;100.00
7836;BME280;3963;42.658;23.298;2023-02-28T10:12:16;59251.09;;;8.87;100.00
7836;BME280;3963;42.658;23.298;2023-02-28T10:14:46;59227.03;;;8.94;100.00
7836;BME280;3963;42.658;23.298;2023-02-28T10:17:16;59273.94;;;9.06;100.00
7836;BME280;3963;42.658;23.298;2023-02-28T10:19:56;59287.13;;;9.14;100.00
7836;BME280;3963;42.658;23.298;2023-02-28T10:22:28;59278.94;;;9.16;100.00
7836;BME280;3963;42.658;23.298;2023-02-28T10:24:58;59249.28;;;9.10;100.00
7836;BME280;3963;42.658;23.298;2023-02-28T10:27:30;59244.69;;;8.96;100.00
7836;BME280;3963;42.658;23.298;2023-02-28T10:29:59;59255.81;;;8.89;100.00
7836;BME280;3963;42.658;23.298;2023-02-28T10:32:29;59297.00;;;9.16;100.00
7836;BME280;3963;42.658;23.298;2023-02-28T10:35:01;59318.19;;;9.31;100.00
7836;BME280;3963;42.658;23.298;2023-02-28T10:37:33;59294.94;;;9.45;100.00
7836;BME280;3963;42.658;23.298;2023-02-28T10:40:05;59362.16;;;9.77;100.00
7836;BME280;3963;42.658;23.298;2023-02-28T10:42:32;59352.00;;;9.82;100.00
7836;BME280;3963;42.658;23.298;2023-02-28T10:45:06;59347.06;;;10.05;100.00
7836;BME280;3963;42.658;23.298;2023-02-28T10:47:34;59392.63;;;10.21;100.00
7836;BME280;3963;42.658;23.298;2023-02-28T10:50:04;59455.44;;;10.41;100.00
7836;BME280;3963;42.658;23.298;2023-02-28T10:52:33;59449.97;;;10.48;100.00
7836;BME280;3963;42.658;23.298;2023-02-28T10:55:19;59489.13;;;10.73;100.00
7836;BME280;3963;42.658;23.298;2023-02-28T10:57:48;59460.47;;;10.68;100.00
7836;BME280;3963;42.658;23.298;2023-02-28T11:00:17;59510.28;;;10.85;100.00
7836;BME280;3963;42.658;23.298;2023-02-28T11:02:44;59494.50;;;10.78;100.00
7836;BME280;3963;42.658;23.298;2023-02-28T11:05:28;59465.72;;;10.85;100.00
7836;BME280;3963;42.658;23.298;2023-02-28T11:07:57;59505.91;;;10.79;100.00
7836;BME280;3963;42.658;23.298;2023-02-28T11:10:30;59447.38;;;10.63;100.00
7836;BME280;3963;42.658;23.298;2023-02-28T11:13:00;59508.94;;;10.77;100.00
7836;BME280;3963;42.658;23.298;2023-02-28T11:15:30;59455.91;;;10.71;100.00
7836;BME280;3963;42.658;23.298;2023-02-28T11:18:00;59451.63;;;10.67;100.00
7836;BME280;3963;42.658;23.298;2023-02-28T11:20:32;59495.31;;;10.57;100.00
7836;BME280;3963;42.658;23.298;2023-02-28T11:23:00;59439.88;;;10.55;100.00
7836;BME280;3963;42.658;23.298;2023-02-28T11:25:30;59452.09;;;10.50;100.00
7836;BME280;3963;42.658;23.298;2023-02-28T11:27:59;59465.91;;;10.61;100.00
7836;BME280;3963;42.658;23.298;2023-02-28T11:30:30;59479.47;;;10.78;100.00
7836;BME280;3963;42.658;23.298;2023-02-28T11:32:58;59468.13;;;10.80;100.00
7836;BME280;3963;42.658;23.298;2023-02-28T11:35:32;59524.13;;;10.81;100.00
7836;BME280;3963;42.658;23.298;2023-02-28T11:38:00;59481.78;;;10.85;100.00
7836;BME280;3963;42.658;23.298;2023-02-28T11:40:33;59507.69;;;10.85;100.00
7836;BME280;3963;42.658;23.298;2023-02-28T11:43:07;59482.31;;;10.86;100.00
7836;BME280;3963;42.658;23.298;2023-02-28T11:45:55;59552.50;;;11.08;100.00
7836;BME280;3963;42.658;23.298;2023-02-28T11:48:28;59552.69;;;11.13;100.00
7836;BME280;3963;42.658;23.298;2023-02-28T11:51:08;59548.75;;;11.04;100.00
7836;BME280;3963;42.658;23.298;2023-02-28T11:53:50;59490.56;;;10.84;100.00
7836;BME280;3963;42.658;23.298;2023-02-28T11:56:25;59503.41;;;10.96;100.00
7836;BME280;3963;42.658;23.298;2023-02-28T11:59:02;59576.34;;;11.23;100.00
7836;BME280;3963;42.658;23.298;2023-02-28T12:01:56;59576.53;;;11.28;100.00
7836;BME280;3963;42.658;23.298;2023-02-28T12:04:30;59548.69;;;11.02;100.00
7836;BME280;3963;42.658;23.298;2023-02-28T12:07:11;59482.69;;;10.81;100.00
7836;BME280;3963;42.658;23.298;2023-02-28T12:09:47;59483.66;;;10.80;100.00
7836;BME280;3963;42.658;23.298;2023-02-28T12:12:24;59519.75;;;10.89;100.00
7836;BME280;3963;42.658;23.298;2023-02-28T12:15:31;59526.09;;;10.93;100.00
7836;BME280;3963;42.658;23.298;2023-02-28T12:18:21;59527.59;;;11.06;100.00
7836;BME280;3963;42.658;23.298;2023-02-28T12:20:57;59495.91;;;10.89;100.00
7836;BME280;3963;42.658;23.298;2023-02-28T12:23:59;59480.19;;;10.84;100.00
7836;BME280;3963;42.658;23.298;2023-02-28T12:26:36;59523.94;;;10.91;100.00
7836;BME280;3963;42.658;23.298;2023-02-28T12:29:10;59509.31;;;10.87;100.00
7836;BME280;3963;42.658;23.298;2023-02-28T12:31:45;59513.66;;;10.93;100.00
7836;BME280;3963;42.658;23.298;2023-02-28T12:34:17;59513.03;;;11.05;100.00
7836;BME280;3963;42.658;23.298;2023-02-28T12:36:46;59479.72;;;10.86;100.00
7836;BME280;3963;42.658;23.298;2023-02-28T12:39:19;59497.25;;;10.83;100.00
7836;BME280;3963;42.658;23.298;2023-02-28T12:41:53;59473.41;;;10.82;100.00
7836;BME280;3963;42.658;23.298;2023-02-28T12:44:25;59522.69;;;10.85;100.00
7836;BME280;3963;42.658;23.298;2023-02-28T12:46:55;59490.81;;;10.77;100.00
7836;BME280;3963;42.658;23.298;2023-02-28T12:49:29;59488.06;;;10.72;100.00
7836;BME280;3963;42.658;23.298;2023-02-28T12:51:59;59503.84;;;10.79;100.00
7836;BME280;3963;42.658;23.298;2023-02-28T12:54:31;59485.28;;;10.67;100.00
7836;BME280;3963;42.658;23.298;2023-02-28T12:57:07;59461.47;;;10.66;100.00
7836;BME280;3963;42.658;23.298;2023-02-28T12:59:39;59498.59;;;10.77;100.00
7836;BME280;3963;42.658;23.298;2023-02-28T13:02:25;59502.50;;;10.85;100.00
7836;BME280;3963;42.658;23.298;2023-02-28T13:05:13;59521.09;;;10.69;100.00
7836;BME280;3963;42.658;23.298;2023-02-28T13:08:08;59497.44;;;10.73;100.00
7836;BME280;3963;42.658;23.298;2023-02-28T13:10:44;59475.56;;;10.70;100.00
7836;BME280;3963;42.658;23.298;2023-02-28T13:13:15;59488.97;;;10.68;100.00
7836;BME280;3963;42.658;23.298;2023-02-28T13:15:58;59475.03;;;10.69;100.00
7836;BME280;3963;42.658;23.298;2023-02-28T13:18:34;59499.69;;;10.63;100.00
7836;BME280;3963;42.658;23.298;2023-02-28T13:21:03;59445.84;;;10.49;100.00
7836;BME280;3963;42.658;23.298;2023-02-28T13:23:57;59414.66;;;10.29;100.00
7836;BME280;3963;42.658;23.298;2023-02-28T13:29:30;59452.03;;;10.47;100.00
7836;BME280;3963;42.658;23.298;2023-02-28T13:32:29;59447.72;;;10.58;100.00
7836;BME280;3963;42.658;23.298;2023-02-28T13:35:14;59511.53;;;10.77;100.00